Time;durP1;ratioP1;P1;durP2;ratioP2;P2;SDS_P1;SDS_P2;PMS_P1;PMS_P2;Temp;Humidity;BMP_temperature;BMP_pressure;BME280_temperature;BME280_humidity;BME280_pressure;Samples;Min_cycle;Max_cycle;Signal;HPM_P1;HPM_P2
2022/12/19 00:02:06;;;;;;;6.85;3.70;;;11.20;99.90;;;;;;5083199;28;20036;-94
2022/12/19 00:04:32;;;;;;;8.38;3.88;;;11.10;99.90;;;;;;5072891;28;20449;-94
2022/12/19 00:06:58;;;;;;;8.55;4.32;;;11.10;99.90;;;;;;5073376;28;20024;-94
2022/12/19 00:09:25;;;;;;;7.57;3.88;;;11.20;99.90;;;;;;5073268;28;20052;-94
2022/12/19 00:11:51;;;;;;;6.68;4.60;;;11.10;99.90;;;;;;5073108;28;20060;-94
2022/12/19 00:14:17;;;;;;;7.30;4.15;;;11.10;99.90;;;;;;5077489;28;20449;-94
2022/12/19 00:16:42;;;;;;;6.97;4.00;;;11.00;99.90;;;;;;5082783;28;20611;-94
2022/12/19 00:19:09;;;;;;;11.07;4.93;;;11.10;99.90;;;;;;5072936;28;20052;-94
2022/12/19 00:21:35;;;;;;;8.35;3.95;;;11.20;99.90;;;;;;5072979;28;20033;-94
2022/12/19 00:24:03;;;;;;;11.13;3.80;;;11.20;99.90;;;;;;5090177;28;20047;-94
2022/12/19 00:26:31;;;;;;;9.70;4.22;;;11.30;99.90;;;;;;5082263;28;20351;-93
2022/12/19 00:29:00;;;;;;;6.10;3.70;;;11.30;99.90;;;;;;5072607;28;20020;-94
2022/12/19 00:31:28;;;;;;;5.97;4.03;;;11.20;99.90;;;;;;5084008;28;20031;-92
2022/12/19 00:33:54;;;;;;;6.70;3.60;;;11.20;99.90;;;;;;5088334;28;20052;-94
2022/12/19 00:36:26;;;;;;;7.65;3.83;;;11.20;99.90;;;;;;5072803;28;20032;-94
2022/12/19 00:38:52;;;;;;;;;;;11.20;99.90;;;;;;5073717;28;20028;-95
2022/12/19 00:41:24;;;;;;;10.25;3.75;;;11.10;99.90;;;;;;5072985;28;19966;-94
2022/12/19 00:43:58;;;;;;;10.68;3.72;;;11.20;99.90;;;;;;5085809;28;20056;-94
2022/12/19 00:46:24;;;;;;;11.93;4.43;;;11.30;99.90;;;;;;5072469;28;20107;-93
2022/12/19 00:48:50;;;;;;;12.85;4.45;;;11.30;99.90;;;;;;5072923;28;20029;-95
2022/12/19 00:51:23;;;;;;;10.68;4.15;;;11.50;99.90;;;;;;5072755;28;20032;-93
2022/12/19 00:53:50;;;;;;;8.50;3.70;;;11.40;99.90;;;;;;5081752;28;20073;-94
2022/12/19 00:56:18;;;;;;;7.97;3.50;;;11.40;99.90;;;;;;5078964;28;20041;-93
2022/12/19 00:58:45;;;;;;;5.18;3.55;;;11.40;99.90;;;;;;5072802;28;20051;-93
2022/12/19 01:01:18;;;;;;;9.88;3.95;;;11.40;99.90;;;;;;5072170;28;20099;-93
2022/12/19 01:03:44;;;;;;;9.32;4.60;;;11.40;99.90;;;;;;5072790;28;20113;-94
2022/12/19 01:06:10;;;;;;;8.95;4.38;;;11.40;99.90;;;;;;5072180;28;20017;-93
2022/12/19 01:08:36;;;;;;;9.98;4.00;;;11.50;99.90;;;;;;5072611;28;20047;-94
2022/12/19 01:11:02;;;;;;;5.78;3.38;;;11.40;99.90;;;;;;5072572;28;20114;-93
2022/12/19 01:13:30;;;;;;;10.05;3.90;;;11.40;99.90;;;;;;5072467;28;20013;-93
2022/12/19 01:16:00;;;;;;;6.45;3.63;;;11.40;99.90;;;;;;5076576;28;20056;-93
2022/12/19 01:18:26;;;;;;;9.68;3.83;;;11.50;99.90;;;;;;5081297;28;20025;-93
2022/12/19 01:20:52;;;;;;;7.63;3.83;;;11.50;99.90;;;;;;5072282;28;20021;-94
2022/12/19 01:23:17;;;;;;;5.53;3.60;;;11.50;99.90;;;;;;5072672;28;20528;-93
2022/12/19 01:25:51;;;;;;;6.82;3.75;;;11.40;99.90;;;;;;5071577;28;20032;-94
2022/12/19 01:28:17;;;;;;;10.20;4.15;;;11.40;99.90;;;;;;5072382;28;20114;-93
2022/12/19 01:30:42;;;;;;;5.05;3.55;;;11.50;99.90;;;;;;5073353;28;20112;-94
2022/12/19 01:33:14;;;;;;;6.20;3.60;;;11.50;99.90;;;;;;5075872;28;20500;-94
2022/12/19 01:35:41;;;;;;;5.68;3.97;;;11.50;99.90;;;;;;5075918;28;20024;-94
2022/12/19 01:38:11;;;;;;;6.38;3.90;;;11.50;99.90;;;;;;5075995;28;20029;-93
2022/12/19 01:40:37;;;;;;;7.38;3.80;;;11.60;99.90;;;;;;5082546;28;20035;-93
2022/12/19 01:43:02;;;;;;;9.88;4.03;;;11.50;99.90;;;;;;5082613;28;20029;-93
2022/12/19 01:45:36;;;;;;;7.80;3.65;;;11.60;99.90;;;;;;5075638;28;20025;-93
2022/12/19 01:48:06;;;;;;;9.38;4.28;;;11.60;99.90;;;;;;5076672;28;20077;-94
2022/12/19 01:51:00;;;;;;;12.10;4.60;;;11.60;99.90;;;;;;5075612;28;20513;-94
2022/12/19 01:53:34;;;;;;;7.45;3.70;;;11.60;99.90;;;;;;5075772;28;20028;-94
2022/12/19 01:56:03;;;;;;;8.25;4.15;;;11.70;99.90;;;;;;5075598;28;20031;-94
2022/12/19 01:58:29;;;;;;;9.65;4.50;;;11.60;99.90;;;;;;5075841;28;20052;-95
2022/12/19 02:00:54;;;;;;;10.88;4.22;;;11.60;99.90;;;;;;5075707;28;20106;-94
2022/12/19 02:03:23;;;;;;;6.22;4.38;;;11.60;99.90;;;;;;5075455;28;20064;-94
2022/12/19 02:05:51;;;;;;;7.63;4.00;;;11.60;99.90;;;;;;5075553;28;20520;-95
2022/12/19 02:08:17;;;;;;;8.75;4.13;;;11.70;99.90;;;;;;5075544;28;20024;-94
2022/12/19 02:10:43;;;;;;;9.15;4.03;;;11.70;99.90;;;;;;5075397;28;20021;-94
2022/12/19 02:13:09;;;;;;;8.18;4.53;;;11.70;99.90;;;;;;5075313;28;20500;-93
2022/12/19 02:15:52;;;;;;;11.48;3.97;;;11.80;99.90;;;;;;5075341;28;20040;-93
2022/12/19 02:18:32;;;;;;;8.00;3.78;;;11.80;99.90;;;;;;5075295;28;20101;-94
2022/12/19 02:21:36;;;;;;;7.30;4.10;;;11.70;99.90;;;;;;5088783;28;20028;-93
2022/12/19 02:24:47;;;;;;;6.63;4.03;;;11.60;99.90;;;;;;5008687;28;20038;-93
2022/12/19 02:27:42;;;;;;;5.50;4.05;;;11.70;99.90;;;;;;5006177;28;20177;-93
2022/12/19 02:30:52;;;;;;;7.57;3.88;;;11.70;99.90;;;;;;5008794;28;20061;-93
2022/12/19 02:33:44;;;;;;;10.18;4.53;;;11.80;99.90;;;;;;5013310;28;20100;-93
2022/12/19 02:36:20;;;;;;;8.48;4.18;;;11.70;99.90;;;;;;5013203;28;20036;-92
2022/12/19 02:39:07;;;;;;;9.57;4.57;;;11.80;99.90;;;;;;5005577;28;20049;-92
2022/12/19 02:41:49;;;;;;;8.70;4.65;;;11.60;99.90;;;;;;4995435;28;20034;-94
2022/12/19 02:44:28;;;;;;;9.77;4.38;;;11.80;99.90;;;;;;5001747;28;20041;-94
2022/12/19 02:46:55;;;;;;;8.38;4.40;;;11.70;99.90;;;;;;5011851;28;20120;-93
2022/12/19 02:49:21;;;;;;;9.73;3.72;;;11.70;99.90;;;;;;5012905;28;20097;-92
2022/12/19 02:51:46;;;;;;;9.65;4.35;;;11.70;99.90;;;;;;5012772;28;20122;-93
2022/12/19 02:54:12;;;;;;;10.13;4.53;;;11.90;99.90;;;;;;5000985;28;20027;-93
2022/12/19 02:57:28;;;;;;;7.20;4.50;;;11.70;99.90;;;;;;5006262;28;20563;-93
2022/12/19 02:59:59;;;;;;;10.25;4.10;;;11.60;99.90;;;;;;5006187;28;20026;-93
2022/12/19 03:02:39;;;;;;;7.90;4.23;;;11.60;99.90;;;;;;5058523;28;20040;-93
2022/12/19 03:05:08;;;;;;;6.18;3.65;;;11.70;99.90;;;;;;5062512;28;20091;-93
2022/12/19 03:08:11;;;;;;;7.72;4.03;;;11.70;99.90;;;;;;5087416;28;20093;-92
2022/12/19 03:10:46;;;;;;;8.25;4.45;;;11.60;99.90;;;;;;5074575;28;20071;-94
2022/12/19 03:13:20;;;;;;;9.75;4.32;;;11.70;99.90;;;;;;5074028;28;20017;-94
2022/12/19 03:15:46;;;;;;;10.85;4.53;;;11.80;99.90;;;;;;5087672;28;20043;-93
2022/12/19 03:18:12;;;;;;;11.93;4.40;;;11.80;99.90;;;;;;5074109;28;20743;-94
2022/12/19 03:21:01;;;;;;;6.18;3.90;;;11.70;99.90;;;;;;5073899;28;20242;-93
2022/12/19 03:23:28;;;;;;;11.13;4.95;;;11.70;99.90;;;;;;5074244;28;20021;-94
2022/12/19 03:25:58;;;;;;;11.13;4.32;;;11.70;99.90;;;;;;5074048;28;20016;-95
2022/12/19 03:28:39;;;;;;;7.13;3.53;;;11.70;99.90;;;;;;5074352;28;20064;-94
2022/12/19 03:31:08;;;;;;;11.77;4.67;;;11.60;99.90;;;;;;5062468;28;20017;-93
2022/12/19 03:33:37;;;;;;;8.50;4.25;;;11.70;99.90;;;;;;5073886;28;20344;-95
2022/12/19 03:36:06;;;;;;;6.35;4.15;;;11.70;99.90;;;;;;5073572;28;20020;-93
2022/12/19 03:38:34;;;;;;;7.47;4.93;;;11.70;99.90;;;;;;5073380;28;20017;-92
2022/12/19 03:41:02;;;;;;;8.77;4.20;;;11.70;99.90;;;;;;5074022;28;20494;-93
2022/12/19 03:43:29;;;;;;;8.23;4.72;;;11.70;99.90;;;;;;5073186;28;20021;-93
2022/12/19 03:46:21;;;;;;;6.30;4.40;;;11.60;99.90;;;;;;5073331;28;20551;-93
2022/12/19 03:48:52;;;;;;;9.80;4.35;;;11.50;99.90;;;;;;5060901;28;20027;-93
2022/12/19 03:51:37;;;;;;;10.63;4.72;;;11.60;99.90;;;;;;5073098;28;20086;-93
2022/12/19 03:54:09;;;;;;;7.68;4.13;;;11.60;99.90;;;;;;5073205;28;20033;-93
2022/12/19 03:56:53;;;;;;;7.35;4.25;;;11.60;99.90;;;;;;5073090;28;20051;-93
2022/12/19 03:59:45;;;;;;;7.30;4.28;;;11.60;99.90;;;;;;5072110;28;20282;-93
2022/12/19 04:02:12;;;;;;;;;;;11.70;99.90;;;;;;5073717;28;20021;-94
2022/12/19 04:04:44;;;;;;;10.27;4.45;;;11.60;99.90;;;;;;5091396;28;20039;-94
2022/12/19 04:07:12;;;;;;;5.85;4.40;;;11.60;99.90;;;;;;5080238;28;20093;-94
2022/12/19 04:09:41;;;;;;;4.43;3.80;;;11.40;99.90;;;;;;5078304;28;20075;-93
2022/12/19 04:12:13;;;;;;;9.52;4.65;;;11.50;99.90;;;;;;5080556;28;20024;-95
2022/12/19 04:14:39;;;;;;;6.28;4.00;;;11.60;99.90;;;;;;5073220;28;20029;-95
2022/12/19 04:17:49;;;;;;;10.70;4.47;;;11.60;99.90;;;;;;5072742;28;20128;-96
2022/12/19 04:20:18;;;;;;;9.75;4.80;;;11.70;99.90;;;;;;5070257;28;20033;-95
2022/12/19 04:22:52;;;;;;;5.32;4.10;;;11.70;99.90;;;;;;5073126;28;20017;-93
2022/12/19 04:25:39;;;;;;;9.00;4.32;;;11.60;99.90;;;;;;5073094;28;20107;-95
2022/12/19 04:28:13;;;;;;;10.02;4.40;;;11.70;99.90;;;;;;5073085;28;20072;-94
2022/12/19 04:30:41;;;;;;;6.63;4.00;;;11.60;99.90;;;;;;5072785;28;20012;-94
2022/12/19 04:33:06;;;;;;;8.73;3.75;;;11.60;99.90;;;;;;5072868;28;20023;-94
2022/12/19 04:35:33;;;;;;;8.27;4.53;;;11.60;99.90;;;;;;5073003;28;20513;-95
2022/12/19 04:37:59;;;;;;;11.68;4.30;;;11.70;99.90;;;;;;5072635;28;20032;-95
2022/12/19 04:40:25;;;;;;;9.10;4.90;;;11.70;99.90;;;;;;5078130;28;20058;-94
2022/12/19 04:42:50;;;;;;;10.68;5.13;;;11.70;99.90;;;;;;5092760;28;20074;-94
2022/12/19 04:45:16;;;;;;;13.98;4.25;;;11.70;99.90;;;;;;5074954;28;20067;-94
2022/12/19 04:47:42;;;;;;;7.90;4.28;;;11.60;99.90;;;;;;5084434;28;20165;-94
2022/12/19 04:50:08;;;;;;;6.43;4.32;;;11.60;99.90;;;;;;5082614;28;20024;-95
2022/12/19 04:52:34;;;;;;;8.40;3.75;;;11.60;99.90;;;;;;5064730;28;20105;-94
2022/12/19 04:55:00;;;;;;;10.38;4.40;;;11.70;99.90;;;;;;5072473;28;20036;-93
2022/12/19 04:57:30;;;;;;;7.03;3.78;;;11.80;99.90;;;;;;5076714;28;20062;-94
2022/12/19 04:59:56;;;;;;;6.32;3.92;;;11.70;99.90;;;;;;5079539;28;20039;-95
2022/12/19 05:02:23;;;;;;;12.77;5.00;;;11.60;99.90;;;;;;5080260;28;20033;-94
2022/12/19 05:04:49;;;;;;;8.18;4.32;;;11.70;99.90;;;;;;5072900;28;20033;-94
2022/12/19 05:07:18;;;;;;;9.90;4.63;;;11.60;99.90;;;;;;5075348;28;20032;-95
2022/12/19 05:09:44;;;;;;;6.97;4.30;;;11.60;99.90;;;;;;5079102;28;20021;-94
2022/12/19 05:12:09;;;;;;;9.05;4.20;;;11.60;99.90;;;;;;5076684;28;20035;-93
2022/12/19 05:14:35;;;;;;;10.63;4.75;;;11.60;99.90;;;;;;5076337;28;20024;-94
2022/12/19 05:17:01;;;;;;;8.75;4.28;;;11.50;99.90;;;;;;5076503;28;20024;-94
2022/12/19 05:19:27;;;;;;;9.32;4.10;;;11.40;99.90;;;;;;5089718;28;20494;-95
2022/12/19 05:21:53;;;;;;;8.27;4.93;;;11.50;99.90;;;;;;5076473;28;20028;-96
2022/12/19 05:24:18;;;;;;;6.85;4.22;;;11.60;99.90;;;;;;5076113;28;20037;-95
2022/12/19 05:26:44;;;;;;;7.82;4.03;;;11.50;99.90;;;;;;5076102;28;20124;-94
2022/12/19 05:29:10;;;;;;;11.63;4.30;;;11.60;99.90;;;;;;5089278;28;20034;-95
2022/12/19 05:31:36;;;;;;;6.60;4.10;;;11.60;99.90;;;;;;5077208;28;20023;-95
2022/12/19 05:34:01;;;;;;;6.35;4.00;;;11.50;99.90;;;;;;5075833;28;20036;-94
2022/12/19 05:36:27;;;;;;;6.90;4.20;;;11.50;99.90;;;;;;5076689;28;20050;-94
2022/12/19 05:38:53;;;;;;;6.57;3.67;;;11.50;99.90;;;;;;5077198;28;20494;-93
2022/12/19 05:41:20;;;;;;;8.82;4.28;;;11.50;99.90;;;;;;5076228;28;20021;-93
2022/12/19 05:43:51;;;;;;;8.52;4.05;;;11.50;99.90;;;;;;5076368;28;20032;-94
2022/12/19 05:46:17;;;;;;;9.32;3.65;;;11.60;99.90;;;;;;5076407;28;20025;-95
2022/12/19 05:48:43;;;;;;;11.40;5.05;;;11.60;99.90;;;;;;5089276;28;20547;-95
2022/12/19 05:51:08;;;;;;;4.78;3.80;;;11.60;99.90;;;;;;5075998;28;20048;-95
2022/12/19 05:53:35;;;;;;;9.10;4.05;;;11.50;99.90;;;;;;5075747;28;20104;-94
2022/12/19 05:56:13;;;;;;;9.10;4.38;;;11.50;99.90;;;;;;5089397;28;20023;-94
2022/12/19 05:58:40;;;;;;;11.13;4.50;;;11.60;99.90;;;;;;5072870;28;20049;-94
2022/12/19 06:01:10;;;;;;;8.98;4.05;;;11.50;99.90;;;;;;5088913;28;20024;-95
2022/12/19 06:03:36;;;;;;;10.23;4.53;;;11.40;99.90;;;;;;5075383;28;20129;-94
2022/12/19 06:06:04;;;;;;;7.75;4.13;;;11.40;99.90;;;;;;5076042;28;20020;-94
2022/12/19 06:08:29;;;;;;;8.32;3.95;;;11.40;99.90;;;;;;5075188;28;20021;-95
2022/12/19 06:11:01;;;;;;;8.05;4.90;;;11.40;99.90;;;;;;5078003;28;20089;-94
2022/12/19 06:13:28;;;;;;;9.10;3.88;;;11.40;99.90;;;;;;5085612;28;20094;-94
2022/12/19 06:16:05;;;;;;;9.02;4.07;;;11.50;99.90;;;;;;5089056;28;20020;-94
2022/12/19 06:18:31;;;;;;;7.13;4.20;;;11.50;99.90;;;;;;5073502;28;20036;-94
2022/12/19 06:21:05;;;;;;;9.93;4.47;;;11.50;99.90;;;;;;5075549;28;20024;-94
2022/12/19 06:23:33;;;;;;;10.48;4.43;;;11.40;99.90;;;;;;5075326;28;20060;-94
2022/12/19 06:26:00;;;;;;;10.80;4.50;;;11.30;99.90;;;;;;5061820;28;20078;-94
2022/12/19 06:28:28;;;;;;;7.53;4.13;;;11.40;99.90;;;;;;5074927;28;20111;-94
2022/12/19 06:30:58;;;;;;;8.23;3.60;;;11.40;99.90;;;;;;5075379;28;20031;-95
2022/12/19 06:33:24;;;;;;;11.40;5.18;;;11.30;99.90;;;;;;5074857;28;20021;-95
2022/12/19 06:36:07;;;;;;;6.90;4.53;;;11.50;99.90;;;;;;5075374;28;20291;-94
2022/12/19 06:38:33;;;;;;;10.25;4.20;;;11.50;99.90;;;;;;5074882;28;20115;-94
2022/12/19 06:44:00;;;;;;;7.03;3.75;;;11.50;99.90;;;;;;5021519;28;20568;-93
2022/12/19 06:46:26;;;;;;;7.07;3.85;;;11.50;99.90;;;;;;5032892;28;20057;-94
2022/12/19 06:48:52;;;;;;;7.40;3.75;;;11.50;99.90;;;;;;5033037;28;20034;-94
2022/12/19 06:51:18;;;;;;;13.00;4.78;;;11.40;99.90;;;;;;5020039;28;20502;-94
2022/12/19 06:53:43;;;;;;;12.02;4.68;;;11.40;99.90;;;;;;5033076;28;20033;-94
2022/12/19 06:56:12;;;;;;;8.82;4.15;;;11.50;99.90;;;;;;5019601;28;20024;-94
2022/12/19 06:58:37;;;;;;;8.10;4.15;;;11.50;99.90;;;;;;5032780;28;20168;-95
2022/12/19 07:01:03;;;;;;;6.20;4.00;;;11.50;99.90;;;;;;5031951;28;20092;-95
2022/12/19 07:03:37;;;;;;;5.40;3.35;;;11.50;99.90;;;;;;5032593;28;20052;-95
2022/12/19 07:06:04;;;;;;;7.90;3.60;;;11.50;99.90;;;;;;5034980;28;20030;-94
2022/12/19 07:08:30;;;;;;;7.85;3.95;;;11.70;99.90;;;;;;5042802;28;20065;-94
2022/12/19 07:10:56;;;;;;;10.30;3.67;;;11.60;99.90;;;;;;5032765;28;20034;-94
2022/12/19 07:13:22;;;;;;;10.68;3.90;;;11.70;99.90;;;;;;5032244;28;20039;-95
2022/12/19 07:15:49;;;;;;;11.35;4.30;;;11.80;99.90;;;;;;5032202;28;20030;-95
2022/12/19 07:18:15;;;;;;;11.02;3.70;;;11.80;99.90;;;;;;5032752;28;20056;-94
2022/12/19 07:20:42;;;;;;;6.55;3.63;;;11.70;99.90;;;;;;5059719;28;20494;-94
2022/12/19 07:23:15;;;;;;;7.57;3.53;;;11.80;99.90;;;;;;5075271;28;20024;-94
2022/12/19 07:25:41;;;;;;;8.48;3.75;;;11.60;99.90;;;;;;5074053;28;20025;-95
2022/12/19 07:28:08;;;;;;;10.35;3.58;;;11.50;99.90;;;;;;5073994;28;20049;-95
2022/12/19 07:30:34;;;;;;;9.00;3.42;;;11.60;99.90;;;;;;5085760;28;20052;-96
2022/12/19 07:33:00;;;;;;;11.20;3.90;;;11.70;99.90;;;;;;5073933;28;20205;-94
2022/12/19 07:35:25;;;;;;;6.28;3.78;;;11.70;99.90;;;;;;5073652;28;20079;-94
2022/12/19 07:37:51;;;;;;;7.18;3.67;;;11.70;99.90;;;;;;5073981;28;20028;-93
2022/12/19 07:40:17;;;;;;;8.43;3.92;;;11.80;99.90;;;;;;5077961;28;20031;-94
2022/12/19 07:42:44;;;;;;;10.40;3.90;;;11.80;99.90;;;;;;5093946;28;20106;-95
2022/12/19 07:45:10;;;;;;;11.45;4.63;;;11.80;99.90;;;;;;5089701;28;20035;-93
2022/12/19 07:47:36;;;;;;;9.38;3.97;;;11.90;99.90;;;;;;5073655;28;20024;-92
2022/12/19 07:50:02;;;;;;;9.68;4.47;;;11.90;99.90;;;;;;5082006;28;20021;-87
2022/12/19 07:52:28;;;;;;;8.27;3.58;;;11.80;99.90;;;;;;5064427;28;20517;-93
2022/12/19 07:54:54;;;;;;;5.70;3.33;;;11.80;99.90;;;;;;5073309;28;20028;-92
2022/12/19 07:57:20;;;;;;;8.05;3.67;;;11.70;99.90;;;;;;5073383;28;20024;-92
2022/12/19 07:59:45;;;;;;;11.73;4.20;;;11.80;99.90;;;;;;5065677;28;20028;-92
2022/12/19 08:02:11;;;;;;;10.38;3.75;;;11.90;99.90;;;;;;5071880;28;20032;-91
2022/12/19 08:04:37;;;;;;;10.77;4.20;;;11.90;99.90;;;;;;5071766;28;20537;-92
2022/12/19 08:07:03;;;;;;;8.55;3.22;;;11.90;99.90;;;;;;5077450;28;20060;-93
2022/12/19 08:09:29;;;;;;;10.25;4.03;;;11.80;99.90;;;;;;5082432;28;20154;-94
2022/12/19 08:11:56;;;;;;;8.63;4.03;;;11.80;99.90;;;;;;5070116;28;20553;-91
2022/12/19 08:14:22;;;;;;;5.13;3.25;;;11.80;99.90;;;;;;5069511;28;20030;-92
2022/12/19 08:16:47;;;;;;;6.97;3.72;;;11.80;99.90;;;;;;5069046;28;20460;-93
2022/12/19 08:19:13;;;;;;;9.57;3.95;;;11.80;99.90;;;;;;5076369;28;20028;-92
2022/12/19 08:21:39;;;;;;;8.27;3.83;;;11.90;99.90;;;;;;5071460;28;20035;-92
2022/12/19 08:24:05;;;;;;;9.00;4.15;;;11.90;99.90;;;;;;5070236;28;20108;-91
2022/12/19 08:26:31;;;;;;;7.30;4.18;;;11.90;99.90;;;;;;5070651;28;20044;-93
2022/12/19 08:28:57;;;;;;;7.13;3.58;;;11.90;99.90;;;;;;5070048;28;20100;-91
2022/12/19 08:31:25;;;;;;;8.55;4.15;;;12.00;99.90;;;;;;5069945;28;20029;-90
2022/12/19 08:33:52;;;;;;;6.82;3.78;;;12.00;99.90;;;;;;5071996;28;20017;-92
2022/12/19 08:36:19;;;;;;;9.73;4.18;;;12.00;99.90;;;;;;5069956;28;20037;-90
2022/12/19 08:38:45;;;;;;;7.10;3.67;;;12.00;99.90;;;;;;5069662;28;20051;-90
2022/12/19 08:41:12;;;;;;;9.52;3.83;;;12.10;99.90;;;;;;5074128;28;20047;-92
2022/12/19 08:43:38;;;;;;;10.85;3.90;;;12.10;99.90;;;;;;5073301;28;20029;-93
2022/12/19 08:46:04;;;;;;;8.55;3.85;;;12.10;99.90;;;;;;5075623;28;20493;-87
2022/12/19 08:48:31;;;;;;;7.18;3.67;;;12.20;99.90;;;;;;5075785;28;20029;-92
2022/12/19 08:51:07;;;;;;;4.85;3.20;;;12.30;99.90;;;;;;5065674;28;20020;-91
2022/12/19 08:53:36;;;;;;;8.32;4.10;;;12.40;99.90;;;;;;5070758;28;20033;-91
2022/12/19 08:56:17;;;;;;;8.55;3.78;;;12.50;99.90;;;;;;5069740;28;20021;-92
2022/12/19 08:58:43;;;;;;;;;;;12.60;99.90;;;;;;5073380;28;20031;-93
2022/12/19 09:01:15;;;;;;;9.00;3.88;;;13.20;99.90;;;;;;5071918;28;19905;-94
2022/12/19 09:03:41;;;;;;;10.15;3.88;;;14.20;99.90;;;;;;5067262;28;20033;-90
2022/12/19 09:06:09;;;;;;;7.35;3.30;;;14.50;99.90;;;;;;5072049;28;20517;-90
2022/12/19 09:08:36;;;;;;;8.50;3.45;;;14.90;99.90;;;;;;5070474;28;20024;-90
2022/12/19 09:11:05;;;;;;;5.93;3.08;;;15.50;99.90;;;;;;5070621;28;20039;-90
2022/12/19 09:13:31;;;;;;;9.63;3.75;;;15.60;99.90;;;;;;5070398;28;20029;-91
2022/12/19 09:16:01;;;;;;;7.28;3.63;;;15.10;99.90;;;;;;5065711;28;20040;-90
2022/12/19 09:18:27;;;;;;;8.07;3.15;;;14.40;99.90;;;;;;5070141;28;20067;-91
2022/12/19 09:20:54;;;;;;;8.35;3.70;;;14.10;99.90;;;;;;5070079;28;20028;-89
2022/12/19 09:23:21;;;;;;;5.00;3.25;;;14.00;99.90;;;;;;5080988;28;20024;-89
2022/12/19 09:25:47;;;;;;;6.70;3.10;;;13.90;99.90;;;;;;5078128;28;20036;-90
2022/12/19 09:28:13;;;;;;;8.10;3.47;;;13.90;99.90;;;;;;5073712;28;20652;-90
2022/12/19 09:30:38;;;;;;;5.15;3.47;;;13.90;99.90;;;;;;5069460;28;20048;-89
2022/12/19 09:33:04;;;;;;;7.60;3.33;;;13.90;99.90;;;;;;5069672;28;20024;-90
2022/12/19 09:35:30;;;;;;;6.63;2.85;;;14.00;99.90;;;;;;5078857;28;20041;-88
2022/12/19 09:37:56;;;;;;;7.50;2.88;;;13.90;99.90;;;;;;5069346;28;20064;-89
2022/12/19 09:40:26;;;;;;;7.10;3.38;;;14.00;99.90;;;;;;5070959;28;20071;-88
2022/12/19 09:43:10;;;;;;;8.88;3.53;;;14.00;99.90;;;;;;5080719;28;20036;-88
2022/12/19 09:46:22;;;;;;;8.50;3.55;;;14.00;99.90;;;;;;5069026;28;20037;-90
2022/12/19 09:48:53;;;;;;;8.55;3.30;;;14.10;99.90;;;;;;4979869;28;20177;-88
2022/12/19 09:51:37;;;;;;;11.70;4.80;;;14.20;99.90;;;;;;4981974;28;20101;-88
2022/12/19 09:54:08;;;;;;;5.13;3.20;;;14.20;99.90;;;;;;4971240;28;20066;-88
2022/12/19 09:56:37;;;;;;;8.05;3.25;;;14.40;99.90;;;;;;4986686;28;20038;-91
2022/12/19 09:59:19;;;;;;;9.05;3.25;;;14.40;99.90;;;;;;4979828;28;20126;-89
2022/12/19 10:02:01;;;;;;;9.63;3.78;;;14.40;99.90;;;;;;4990786;28;20078;-89
2022/12/19 10:04:32;;;;;;;5.15;3.28;;;14.40;99.90;;;;;;4988530;28;21431;-88
2022/12/19 10:06:57;;;;;;;8.05;3.88;;;14.50;99.90;;;;;;4966553;28;20046;-88
2022/12/19 10:09:33;;;;;;;7.00;3.00;;;14.50;99.90;;;;;;4989934;28;20405;-88
2022/12/19 10:12:18;;;;;;;7.50;3.78;;;14.50;99.90;;;;;;4990335;28;20034;-87
2022/12/19 10:14:56;;;;;;;7.03;3.47;;;14.50;99.90;;;;;;4983114;28;20059;-88
2022/12/19 10:17:33;;;;;;;7.18;3.00;;;14.50;99.90;;;;;;4985695;28;20085;-87
2022/12/19 10:20:26;;;;;;;4.88;2.90;;;14.60;99.90;;;;;;4989755;28;20034;-87
2022/12/19 10:23:15;;;;;;;8.30;3.42;;;14.60;99.90;;;;;;4984866;28;20553;-87
2022/12/19 10:25:59;;;;;;;8.35;3.20;;;14.60;99.90;;;;;;5029624;28;20047;-88
2022/12/19 10:28:56;;;;;;;6.30;3.22;;;14.70;99.90;;;;;;5084665;28;20497;-87
2022/12/19 10:31:51;;;;;;;8.27;3.20;;;14.80;99.90;;;;;;5081450;28;20029;-87
2022/12/19 10:34:28;;;;;;;7.75;3.53;;;14.80;99.90;;;;;;5060551;28;20048;-87
2022/12/19 10:36:59;;;;;;;8.15;3.65;;;14.80;99.90;;;;;;5072986;28;20027;-88
2022/12/19 10:39:45;;;;;;;8.82;3.70;;;14.80;99.90;;;;;;5071582;28;20072;-86
2022/12/19 10:42:36;;;;;;;6.65;3.33;;;14.90;99.90;;;;;;5071331;28;20056;-87
2022/12/19 10:45:09;;;;;;;7.18;3.10;;;14.80;99.90;;;;;;5073307;28;20032;-87
2022/12/19 10:47:36;;;;;;;8.20;3.33;;;14.80;99.90;;;;;;5071256;28;20028;-88
2022/12/19 10:50:01;;;;;;;8.57;3.65;;;14.80;99.90;;;;;;5071332;28;20046;-90
2022/12/19 10:52:47;;;;;;;7.90;3.28;;;14.80;99.90;;;;;;5080836;28;20017;-88
2022/12/19 10:55:32;;;;;;;7.30;3.45;;;14.90;99.90;;;;;;5068924;28;20055;-89
2022/12/19 10:57:58;;;;;;;7.93;3.38;;;14.90;99.90;;;;;;5070640;28;20024;-88
2022/12/19 11:00:25;;;;;;;9.10;3.47;;;15.00;99.90;;;;;;5073675;28;20608;-88
2022/12/19 11:03:13;;;;;;;11.05;4.40;;;15.10;99.90;;;;;;5070638;28;20024;-87
2022/12/19 11:05:42;;;;;;;6.80;3.25;;;15.10;99.90;;;;;;5065796;28;20025;-88
2022/12/19 11:08:07;;;;;;;10.00;3.47;;;15.10;99.90;;;;;;5071167;28;20031;-89
2022/12/19 11:10:44;;;;;;;7.57;3.33;;;15.10;99.90;;;;;;5071636;28;20025;-89
2022/12/19 11:13:32;;;;;;;8.73;3.75;;;15.10;99.90;;;;;;5059574;28;20108;-89
2022/12/19 11:16:00;;;;;;;9.30;3.60;;;15.10;99.90;;;;;;5080335;28;20035;-90
2022/12/19 11:18:43;;;;;;;10.30;3.30;;;15.10;99.90;;;;;;5071938;28;20092;-89
2022/12/19 11:21:35;;;;;;;5.60;3.50;;;15.10;99.90;;;;;;5078987;28;20063;-90
2022/12/19 11:24:10;;;;;;;6.18;3.20;;;15.20;99.90;;;;;;5087634;28;20101;-90
2022/12/19 11:26:39;;;;;;;7.38;3.08;;;15.20;99.90;;;;;;5071830;28;20044;-90
2022/12/19 11:29:25;;;;;;;6.63;3.22;;;15.30;99.90;;;;;;5073081;28;20028;-90
2022/12/19 11:31:59;;;;;;;6.57;3.25;;;15.20;99.90;;;;;;5071132;28;20036;-90
2022/12/19 11:34:28;;;;;;;7.20;2.97;;;15.20;99.90;;;;;;5071190;28;20051;-89
2022/12/19 11:37:00;;;;;;;6.32;3.15;;;15.30;99.90;;;;;;5069193;28;20095;-90
2022/12/19 11:39:40;;;;;;;8.07;3.08;;;15.30;99.90;;;;;;5068999;28;20048;-89
2022/12/19 11:42:30;;;;;;;6.97;2.70;;;15.40;99.90;;;;;;5072530;28;20067;-89
2022/12/19 11:45:18;;;;;;;6.90;3.13;;;15.30;99.90;;;;;;5070707;28;20052;-91
2022/12/19 11:47:47;;;;;;;7.30;3.35;;;15.30;99.90;;;;;;5069440;28;20029;-89
2022/12/19 11:50:20;;;;;;;9.05;3.33;;;15.40;99.90;;;;;;5067219;28;20093;-88
2022/12/19 11:53:11;;;;;;;8.25;3.30;;;15.50;99.90;;;;;;5071978;28;20025;-89
2022/12/19 11:55:45;;;;;;;8.82;3.03;;;15.50;99.90;;;;;;5067722;28;20017;-90
2022/12/19 11:58:12;;;;;;;9.90;3.28;;;15.50;99.90;;;;;;5070441;28;20565;-90
2022/12/19 12:00:51;;;;;;;10.50;3.72;;;15.50;99.90;;;;;;5071478;28;20120;-89
2022/12/19 12:03:54;;;;;;;6.22;3.50;;;15.50;99.90;;;;;;5068707;28;20047;-88
2022/12/19 12:06:20;;;;;;;10.50;3.42;;;15.50;99.90;;;;;;5068945;28;20039;-87
2022/12/19 12:09:05;;;;;;;9.38;3.35;;;15.60;99.90;;;;;;5069558;28;20035;-89
2022/12/19 12:11:49;;;;;;;11.02;3.38;;;15.60;99.90;;;;;;5069746;28;20024;-89
2022/12/19 12:14:43;;;;;;;6.93;3.10;;;15.50;99.90;;;;;;5074906;28;20058;-89
2022/12/19 12:17:35;;;;;;;7.47;2.88;;;15.50;99.90;;;;;;5079314;28;20036;-88
2022/12/19 12:20:17;;;;;;;;;;;15.60;99.90;;;;;;5071971;28;20082;-90
2022/12/19 12:23:20;;;;;;;8.00;3.30;;;15.50;99.90;;;;;;5071396;28;19959;-89
2022/12/19 12:26:08;;;;;;;10.65;4.05;;;15.50;99.90;;;;;;5072003;28;20033;-89
2022/12/19 12:28:58;;;;;;;7.65;2.65;;;15.60;99.90;;;;;;5070916;28;20473;-89
2022/12/19 12:31:30;;;;;;;7.47;3.30;;;15.60;99.90;;;;;;5081598;28;20021;-91
2022/12/19 12:34:33;;;;;;;7.75;3.45;;;15.50;99.90;;;;;;5070851;28;20028;-90
2022/12/19 12:37:29;;;;;;;6.55;3.17;;;15.40;99.90;;;;;;5072598;28;20035;-90
2022/12/19 12:40:13;;;;;;;8.25;3.25;;;15.50;99.90;;;;;;5072394;28;20024;-91
2022/12/19 12:42:52;;;;;;;5.82;3.10;;;15.50;99.90;;;;;;5075006;28;20024;-90
2022/12/19 12:45:40;;;;;;;5.82;2.83;;;15.60;99.90;;;;;;5073393;28;20032;-86
2022/12/19 12:48:22;;;;;;;7.38;3.13;;;15.50;99.90;;;;;;5071634;28;20029;-88
2022/12/19 12:50:51;;;;;;;5.65;3.00;;;15.50;99.90;;;;;;5072086;28;20020;-88
2022/12/19 12:53:21;;;;;;;7.13;2.97;;;15.40;99.90;;;;;;5071047;28;20028;-88
2022/12/19 12:55:48;;;;;;;7.32;3.35;;;15.50;99.90;;;;;;5072378;28;20033;-89
2022/12/19 12:58:45;;;;;;;7.03;2.90;;;15.40;99.90;;;;;;5070224;28;20039;-88
2022/12/19 13:01:11;;;;;;;5.80;2.67;;;15.50;99.90;;;;;;5084642;28;20036;-90
2022/12/19 13:03:40;;;;;;;8.13;3.03;;;15.40;99.90;;;;;;5071304;28;20517;-90
2022/12/19 13:06:25;;;;;;;8.27;3.05;;;15.50;99.90;;;;;;5074705;28;20024;-90
2022/12/19 13:09:01;;;;;;;7.78;2.92;;;15.40;99.90;;;;;;5090340;28;20028;-90
2022/12/19 13:14:32;;;;;;;6.45;2.65;;;15.40;99.90;;;;;;5088240;28;20071;-91
2022/12/19 13:16:58;;;;;;;6.07;2.92;;;15.40;99.90;;;;;;5079432;28;20028;-91
2022/12/19 13:19:27;;;;;;;11.32;3.10;;;15.40;99.90;;;;;;5071866;28;20060;-91